sensor_id;sensor_type;location;lat;lon;timestamp;P1;durP1;ratioP1;P2;durP2;ratioP2
12118;SDS011;6123;48.864;9.200;2023-11-21T00:02:14;4.75;;;2.58;;
12118;SDS011;6123;48.864;9.200;2023-11-21T00:04:40;5.22;;;2.10;;
12118;SDS011;6123;48.864;9.200;2023-11-21T00:07:05;5.03;;;2.20;;
12118;SDS011;6123;48.864;9.200;2023-11-21T00:09:31;3.00;;;1.90;;
12118;SDS011;6123;48.864;9.200;2023-11-21T00:11:57;5.15;;;2.28;;
12118;SDS011;6123;48.864;9.200;2023-11-21T00:14:24;4.75;;;1.92;;
12118;SDS011;6123;48.864;9.200;2023-11-21T00:16:50;5.13;;;2.17;;
12118;SDS011;6123;48.864;9.200;2023-11-21T00:19:15;4.25;;;2.05;;
12118;SDS011;6123;48.864;9.200;2023-11-21T00:21:41;4.93;;;2.00;;
12118;SDS011;6123;48.864;9.200;2023-11-21T00:24:09;5.07;;;1.95;;
12118;SDS011;6123;48.864;9.200;2023-11-21T00:26:35;4.63;;;1.90;;
12118;SDS011;6123;48.864;9.200;2023-11-21T00:29:03;5.50;;;2.20;;
12118;SDS011;6123;48.864;9.200;2023-11-21T00:31:28;4.40;;;2.20;;
12118;SDS011;6123;48.864;9.200;2023-11-21T00:33:55;2.60;;;1.67;;
12118;SDS011;6123;48.864;9.200;2023-11-21T00:36:21;3.05;;;2.00;;
12118;SDS011;6123;48.864;9.200;2023-11-21T00:38:47;4.57;;;2.30;;
12118;SDS011;6123;48.864;9.200;2023-11-21T00:41:13;3.75;;;1.95;;
12118;SDS011;6123;48.864;9.200;2023-11-21T00:43:38;4.45;;;1.80;;
12118;SDS011;6123;48.864;9.200;2023-11-21T00:46:04;3.50;;;1.80;;
12118;SDS011;6123;48.864;9.200;2023-11-21T00:48:33;4.82;;;1.77;;
12118;SDS011;6123;48.864;9.200;2023-11-21T00:50:59;2.70;;;1.50;;
12118;SDS011;6123;48.864;9.200;2023-11-21T00:53:25;3.63;;;1.67;;
12118;SDS011;6123;48.864;9.200;2023-11-21T00:55:50;3.75;;;1.80;;
12118;SDS011;6123;48.864;9.200;2023-11-21T00:58:22;1.95;;;1.45;;
12118;SDS011;6123;48.864;9.200;2023-11-21T01:00:48;4.82;;;1.90;;
12118;SDS011;6123;48.864;9.200;2023-11-21T01:03:14;3.53;;;1.80;;
12118;SDS011;6123;48.864;9.200;2023-11-21T01:05:39;2.95;;;1.63;;
12118;SDS011;6123;48.864;9.200;2023-11-21T01:08:05;3.75;;;1.80;;
12118;SDS011;6123;48.864;9.200;2023-11-21T01:10:30;3.03;;;1.63;;
12118;SDS011;6123;48.864;9.200;2023-11-21T01:12:56;4.47;;;1.55;;
12118;SDS011;6123;48.864;9.200;2023-11-21T01:15:22;4.18;;;1.70;;
12118;SDS011;6123;48.864;9.200;2023-11-21T01:17:48;4.78;;;1.63;;
12118;SDS011;6123;48.864;9.200;2023-11-21T01:20:13;3.50;;;1.77;;
12118;SDS011;6123;48.864;9.200;2023-11-21T01:22:39;3.17;;;1.80;;
12118;SDS011;6123;48.864;9.200;2023-11-21T01:25:05;3.50;;;1.63;;
12118;SDS011;6123;48.864;9.200;2023-11-21T01:27:32;3.67;;;1.63;;
12118;SDS011;6123;48.864;9.200;2023-11-21T01:30:03;3.88;;;1.55;;
12118;SDS011;6123;48.864;9.200;2023-11-21T01:32:29;3.72;;;1.63;;
12118;SDS011;6123;48.864;9.200;2023-11-21T01:34:55;2.17;;;1.30;;
12118;SDS011;6123;48.864;9.200;2023-11-21T01:37:21;2.78;;;1.40;;
12118;SDS011;6123;48.864;9.200;2023-11-21T01:39:46;3.13;;;1.42;;
12118;SDS011;6123;48.864;9.200;2023-11-21T01:42:12;2.88;;;1.40;;
12118;SDS011;6123;48.864;9.200;2023-11-21T01:44:38;2.88;;;1.50;;
12118;SDS011;6123;48.864;9.200;2023-11-21T01:47:07;1.83;;;1.25;;
12118;SDS011;6123;48.864;9.200;2023-11-21T01:49:34;1.75;;;1.33;;
12118;SDS011;6123;48.864;9.200;2023-11-21T01:52:00;3.65;;;1.30;;
12118;SDS011;6123;48.864;9.200;2023-11-21T01:54:27;3.13;;;1.25;;
12118;SDS011;6123;48.864;9.200;2023-11-21T01:56:56;2.45;;;1.33;;
12118;SDS011;6123;48.864;9.200;2023-11-21T01:59:27;5.25;;;1.65;;
12118;SDS011;6123;48.864;9.200;2023-11-21T02:02:05;3.55;;;1.65;;
12118;SDS011;6123;48.864;9.200;2023-11-21T02:04:32;5.72;;;1.65;;
12118;SDS011;6123;48.864;9.200;2023-11-21T02:06:59;2.20;;;1.45;;
12118;SDS011;6123;48.864;9.200;2023-11-21T02:09:26;2.10;;;1.38;;
12118;SDS011;6123;48.864;9.200;2023-11-21T02:11:58;3.75;;;1.40;;
12118;SDS011;6123;48.864;9.200;2023-11-21T02:14:25;3.95;;;1.55;;
12118;SDS011;6123;48.864;9.200;2023-11-21T02:16:54;4.28;;;1.08;;
12118;SDS011;6123;48.864;9.200;2023-11-21T02:19:21;2.15;;;1.25;;
12118;SDS011;6123;48.864;9.200;2023-11-21T02:21:56;1.95;;;1.52;;
12118;SDS011;6123;48.864;9.200;2023-11-21T02:24:25;3.33;;;1.60;;
12118;SDS011;6123;48.864;9.200;2023-11-21T02:26:52;3.45;;;1.48;;
12118;SDS011;6123;48.864;9.200;2023-11-21T02:29:18;1.80;;;1.10;;
12118;SDS011;6123;48.864;9.200;2023-11-21T02:31:47;1.52;;;1.05;;
12118;SDS011;6123;48.864;9.200;2023-11-21T02:34:14;2.25;;;1.30;;
12118;SDS011;6123;48.864;9.200;2023-11-21T02:36:40;2.50;;;1.30;;
12118;SDS011;6123;48.864;9.200;2023-11-21T02:39:07;1.38;;;1.13;;
12118;SDS011;6123;48.864;9.200;2023-11-21T02:41:33;2.15;;;1.23;;
12118;SDS011;6123;48.864;9.200;2023-11-21T02:43:59;4.03;;;1.20;;
12118;SDS011;6123;48.864;9.200;2023-11-21T02:46:25;2.95;;;1.58;;
12118;SDS011;6123;48.864;9.200;2023-11-21T02:48:51;3.50;;;1.40;;
12118;SDS011;6123;48.864;9.200;2023-11-21T02:51:19;1.45;;;1.00;;
12118;SDS011;6123;48.864;9.200;2023-11-21T02:53:44;2.00;;;1.30;;
12118;SDS011;6123;48.864;9.200;2023-11-21T02:56:11;2.65;;;1.20;;
12118;SDS011;6123;48.864;9.200;2023-11-21T02:58:37;2.08;;;1.00;;
12118;SDS011;6123;48.864;9.200;2023-11-21T03:01:03;1.23;;;1.13;;
12118;SDS011;6123;48.864;9.200;2023-11-21T03:03:32;2.28;;;1.33;;
12118;SDS011;6123;48.864;9.200;2023-11-21T03:05:57;1.45;;;0.98;;
12118;SDS011;6123;48.864;9.200;2023-11-21T03:08:23;1.08;;;0.80;;
12118;SDS011;6123;48.864;9.200;2023-11-21T03:10:48;0.70;;;0.70;;
12118;SDS011;6123;48.864;9.200;2023-11-21T03:13:14;1.58;;;1.10;;
12118;SDS011;6123;48.864;9.200;2023-11-21T03:15:39;2.05;;;0.90;;
12118;SDS011;6123;48.864;9.200;2023-11-21T03:18:05;1.48;;;1.00;;
12118;SDS011;6123;48.864;9.200;2023-11-21T03:20:30;1.45;;;0.80;;
12118;SDS011;6123;48.864;9.200;2023-11-21T03:22:56;1.60;;;1.10;;
12118;SDS011;6123;48.864;9.200;2023-11-21T03:25:21;1.08;;;1.00;;
12118;SDS011;6123;48.864;9.200;2023-11-21T03:27:48;1.15;;;0.80;;
12118;SDS011;6123;48.864;9.200;2023-11-21T03:30:14;1.75;;;0.98;;
12118;SDS011;6123;48.864;9.200;2023-11-21T03:32:41;1.77;;;1.10;;
12118;SDS011;6123;48.864;9.200;2023-11-21T03:35:07;0.90;;;0.75;;
12118;SDS011;6123;48.864;9.200;2023-11-21T03:37:33;2.00;;;1.00;;
12118;SDS011;6123;48.864;9.200;2023-11-21T03:39:58;2.15;;;1.10;;
12118;SDS011;6123;48.864;9.200;2023-11-21T03:42:24;2.28;;;1.23;;
12118;SDS011;6123;48.864;9.200;2023-11-21T03:44:52;1.55;;;0.93;;
12118;SDS011;6123;48.864;9.200;2023-11-21T03:47:18;2.38;;;1.30;;
12118;SDS011;6123;48.864;9.200;2023-11-21T03:49:44;2.80;;;1.42;;
12118;SDS011;6123;48.864;9.200;2023-11-21T03:52:10;2.05;;;1.05;;
12118;SDS011;6123;48.864;9.200;2023-11-21T03:54:36;1.30;;;1.00;;
12118;SDS011;6123;48.864;9.200;2023-11-21T03:57:02;1.02;;;0.93;;
12118;SDS011;6123;48.864;9.200;2023-11-21T03:59:28;1.88;;;1.00;;
12118;SDS011;6123;48.864;9.200;2023-11-21T04:01:55;3.10;;;1.00;;
12118;SDS011;6123;48.864;9.200;2023-11-21T04:04:21;1.73;;;1.10;;
12118;SDS011;6123;48.864;9.200;2023-11-21T04:06:47;2.60;;;0.90;;
12118;SDS011;6123;48.864;9.200;2023-11-21T04:09:13;0.88;;;0.82;;
12118;SDS011;6123;48.864;9.200;2023-11-21T04:11:38;2.65;;;1.13;;
12118;SDS011;6123;48.864;9.200;2023-11-21T04:14:04;2.08;;;1.27;;
12118;SDS011;6123;48.864;9.200;2023-11-21T04:16:29;1.40;;;0.90;;
12118;SDS011;6123;48.864;9.200;2023-11-21T04:18:55;2.08;;;1.00;;
12118;SDS011;6123;48.864;9.200;2023-11-21T04:21:22;2.42;;;0.98;;
12118;SDS011;6123;48.864;9.200;2023-11-21T04:23:47;1.35;;;0.80;;
12118;SDS011;6123;48.864;9.200;2023-11-21T04:26:13;1.73;;;1.13;;
12118;SDS011;6123;48.864;9.200;2023-11-21T04:28:38;3.40;;;1.70;;
12118;SDS011;6123;48.864;9.200;2023-11-21T04:31:04;2.45;;;1.25;;
12118;SDS011;6123;48.864;9.200;2023-11-21T04:33:30;1.40;;;0.80;;
12118;SDS011;6123;48.864;9.200;2023-11-21T04:35:56;2.05;;;1.25;;
12118;SDS011;6123;48.864;9.200;2023-11-21T04:38:22;1.52;;;1.00;;
12118;SDS011;6123;48.864;9.200;2023-11-21T04:40:47;3.17;;;1.10;;
12118;SDS011;6123;48.864;9.200;2023-11-21T04:43:13;1.42;;;1.00;;
12118;SDS011;6123;48.864;9.200;2023-11-21T04:45:38;2.50;;;1.10;;
12118;SDS011;6123;48.864;9.200;2023-11-21T04:48:05;2.05;;;0.80;;
12118;SDS011;6123;48.864;9.200;2023-11-21T04:50:31;1.08;;;0.90;;
12118;SDS011;6123;48.864;9.200;2023-11-21T04:52:57;1.80;;;1.10;;
12118;SDS011;6123;48.864;9.200;2023-11-21T04:55:22;2.13;;;1.00;;
12118;SDS011;6123;48.864;9.200;2023-11-21T04:57:48;3.15;;;1.40;;
12118;SDS011;6123;48.864;9.200;2023-11-21T05:00:13;1.25;;;0.98;;
12118;SDS011;6123;48.864;9.200;2023-11-21T05:02:40;1.90;;;0.95;;
12118;SDS011;6123;48.864;9.200;2023-11-21T05:05:06;1.90;;;1.20;;
12118;SDS011;6123;48.864;9.200;2023-11-21T05:07:32;2.28;;;0.98;;
12118;SDS011;6123;48.864;9.200;2023-11-21T05:10:00;2.10;;;1.15;;
12118;SDS011;6123;48.864;9.200;2023-11-21T05:12:30;2.22;;;1.25;;
12118;SDS011;6123;48.864;9.200;2023-11-21T05:15:03;3.30;;;1.30;;
12118;SDS011;6123;48.864;9.200;2023-11-21T05:17:36;2.88;;;1.10;;
12118;SDS011;6123;48.864;9.200;2023-11-21T05:20:04;1.42;;;1.08;;
12118;SDS011;6123;48.864;9.200;2023-11-21T05:22:33;1.55;;;0.85;;
12118;SDS011;6123;48.864;9.200;2023-11-21T05:24:59;1.30;;;1.00;;
12118;SDS011;6123;48.864;9.200;2023-11-21T05:27:25;1.33;;;1.00;;
12118;SDS011;6123;48.864;9.200;2023-11-21T05:29:50;1.00;;;0.95;;
12118;SDS011;6123;48.864;9.200;2023-11-21T05:32:16;1.17;;;1.00;;
12118;SDS011;6123;48.864;9.200;2023-11-21T05:34:42;1.42;;;0.73;;
12118;SDS011;6123;48.864;9.200;2023-11-21T05:37:08;0.90;;;0.85;;
12118;SDS011;6123;48.864;9.200;2023-11-21T05:39:33;1.83;;;0.85;;
12118;SDS011;6123;48.864;9.200;2023-11-21T05:41:59;1.35;;;0.82;;
12118;SDS011;6123;48.864;9.200;2023-11-21T05:44:25;1.90;;;0.90;;
12118;SDS011;6123;48.864;9.200;2023-11-21T05:46:50;1.58;;;0.80;;
12118;SDS011;6123;48.864;9.200;2023-11-21T05:49:16;2.25;;;1.35;;
12118;SDS011;6123;48.864;9.200;2023-11-21T05:51:41;2.00;;;0.93;;
12118;SDS011;6123;48.864;9.200;2023-11-21T05:54:07;3.25;;;1.05;;
12118;SDS011;6123;48.864;9.200;2023-11-21T05:56:33;1.73;;;1.30;;
12118;SDS011;6123;48.864;9.200;2023-11-21T05:58:58;1.10;;;0.80;;
12118;SDS011;6123;48.864;9.200;2023-11-21T06:01:24;1.10;;;0.93;;
12118;SDS011;6123;48.864;9.200;2023-11-21T06:03:53;2.05;;;1.10;;
12118;SDS011;6123;48.864;9.200;2023-11-21T06:06:20;1.42;;;0.85;;
12118;SDS011;6123;48.864;9.200;2023-11-21T06:08:47;2.80;;;1.38;;
12118;SDS011;6123;48.864;9.200;2023-11-21T06:11:13;2.10;;;1.42;;
12118;SDS011;6123;48.864;9.200;2023-11-21T06:13:39;2.25;;;1.75;;
12118;SDS011;6123;48.864;9.200;2023-11-21T06:16:04;1.50;;;1.40;;
12118;SDS011;6123;48.864;9.200;2023-11-21T06:18:30;1.30;;;1.15;;
12118;SDS011;6123;48.864;9.200;2023-11-21T06:20:56;2.08;;;1.63;;
12118;SDS011;6123;48.864;9.200;2023-11-21T06:23:21;2.45;;;1.40;;
12118;SDS011;6123;48.864;9.200;2023-11-21T06:25:47;1.70;;;1.60;;
12118;SDS011;6123;48.864;9.200;2023-11-21T06:28:13;2.88;;;2.30;;
12118;SDS011;6123;48.864;9.200;2023-11-21T06:30:42;2.20;;;2.00;;
12118;SDS011;6123;48.864;9.200;2023-11-21T06:33:09;2.88;;;1.90;;
12118;SDS011;6123;48.864;9.200;2023-11-21T06:35:34;4.18;;;1.67;;
12118;SDS011;6123;48.864;9.200;2023-11-21T06:38:00;1.50;;;1.40;;
12118;SDS011;6123;48.864;9.200;2023-11-21T06:40:25;1.50;;;1.23;;
12118;SDS011;6123;48.864;9.200;2023-11-21T06:42:51;1.67;;;1.05;;
12118;SDS011;6123;48.864;9.200;2023-11-21T06:45:16;1.52;;;1.20;;
12118;SDS011;6123;48.864;9.200;2023-11-21T06:47:42;1.75;;;1.05;;
12118;SDS011;6123;48.864;9.200;2023-11-21T06:50:08;1.88;;;1.10;;
12118;SDS011;6123;48.864;9.200;2023-11-21T06:52:34;2.45;;;1.30;;
12118;SDS011;6123;48.864;9.200;2023-11-21T06:54:59;1.93;;;1.10;;
12118;SDS011;6123;48.864;9.200;2023-11-21T06:57:25;1.77;;;0.90;;
12118;SDS011;6123;48.864;9.200;2023-11-21T06:59:50;2.60;;;1.30;;
12118;SDS011;6123;48.864;9.200;2023-11-21T07:02:16;1.65;;;1.30;;
12118;SDS011;6123;48.864;9.200;2023-11-21T07:04:43;2.28;;;1.20;;
12118;SDS011;6123;48.864;9.200;2023-11-21T07:07:10;2.05;;;0.93;;
12118;SDS011;6123;48.864;9.200;2023-11-21T07:09:35;2.22;;;1.13;;
12118;SDS011;6123;48.864;9.200;2023-11-21T07:12:01;1.55;;;1.23;;
12118;SDS011;6123;48.864;9.200;2023-11-21T07:14:28;3.25;;;1.45;;
12118;SDS011;6123;48.864;9.200;2023-11-21T07:16:54;1.80;;;1.10;;
12118;SDS011;6123;48.864;9.200;2023-11-21T07:19:20;2.05;;;1.45;;
12118;SDS011;6123;48.864;9.200;2023-11-21T07:21:46;2.35;;;1.30;;
12118;SDS011;6123;48.864;9.200;2023-11-21T07:24:15;1.80;;;1.25;;
12118;SDS011;6123;48.864;9.200;2023-11-21T07:26:41;2.22;;;1.40;;
12118;SDS011;6123;48.864;9.200;2023-11-21T07:29:06;3.35;;;2.00;;
12118;SDS011;6123;48.864;9.200;2023-11-21T07:31:32;2.10;;;1.80;;
12118;SDS011;6123;48.864;9.200;2023-11-21T07:33:59;2.50;;;1.80;;
12118;SDS011;6123;48.864;9.200;2023-11-21T07:36:25;2.00;;;1.77;;
12118;SDS011;6123;48.864;9.200;2023-11-21T07:38:51;1.63;;;1.52;;
12118;SDS011;6123;48.864;9.200;2023-11-21T07:41:17;2.22;;;1.75;;
12118;SDS011;6123;48.864;9.200;2023-11-21T07:43:43;5.10;;;2.40;;
12118;SDS011;6123;48.864;9.200;2023-11-21T07:46:10;8.98;;;5.30;;
12118;SDS011;6123;48.864;9.200;2023-11-21T07:48:37;8.43;;;5.13;;
12118;SDS011;6123;48.864;9.200;2023-11-21T07:51:04;8.43;;;4.30;;
12118;SDS011;6123;48.864;9.200;2023-11-21T07:53:29;8.73;;;5.05;;
12118;SDS011;6123;48.864;9.200;2023-11-21T07:56:13;8.05;;;4.07;;
12118;SDS011;6123;48.864;9.200;2023-11-21T07:58:38;11.77;;;4.63;;
12118;SDS011;6123;48.864;9.200;2023-11-21T08:01:04;9.57;;;4.50;;
12118;SDS011;6123;48.864;9.200;2023-11-21T08:03:30;8.82;;;4.60;;
12118;SDS011;6123;48.864;9.200;2023-11-21T08:05:59;7.13;;;3.72;;
12118;SDS011;6123;48.864;9.200;2023-11-21T08:08:25;9.05;;;4.30;;
12118;SDS011;6123;48.864;9.200;2023-11-21T08:10:51;7.93;;;3.83;;
12118;SDS011;6123;48.864;9.200;2023-11-21T08:13:23;7.68;;;3.95;;
12118;SDS011;6123;48.864;9.200;2023-11-21T08:15:53;8.60;;;4.53;;
12118;SDS011;6123;48.864;9.200;2023-11-21T08:18:19;4.38;;;3.92;;
12118;SDS011;6123;48.864;9.200;2023-11-21T08:20:45;7.25;;;4.30;;
12118;SDS011;6123;48.864;9.200;2023-11-21T08:23:14;6.90;;;4.45;;
12118;SDS011;6123;48.864;9.200;2023-11-21T08:25:42;5.30;;;4.20;;
12118;SDS011;6123;48.864;9.200;2023-11-21T08:28:10;4.85;;;3.83;;
12118;SDS011;6123;48.864;9.200;2023-11-21T08:30:36;5.47;;;2.97;;
12118;SDS011;6123;48.864;9.200;2023-11-21T08:33:01;3.28;;;2.95;;
12118;SDS011;6123;48.864;9.200;2023-11-21T08:35:28;4.05;;;2.97;;
12118;SDS011;6123;48.864;9.200;2023-11-21T08:37:54;3.65;;;2.63;;
12118;SDS011;6123;48.864;9.200;2023-11-21T08:40:20;4.05;;;2.50;;
12118;SDS011;6123;48.864;9.200;2023-11-21T08:42:47;2.70;;;2.10;;
12118;SDS011;6123;48.864;9.200;2023-11-21T08:45:13;2.15;;;1.95;;
12118;SDS011;6123;48.864;9.200;2023-11-21T08:47:39;2.25;;;2.05;;
12118;SDS011;6123;48.864;9.200;2023-11-21T08:50:06;1.63;;;1.52;;
12118;SDS011;6123;48.864;9.200;2023-11-21T08:52:32;2.10;;;1.77;;
12118;SDS011;6123;48.864;9.200;2023-11-21T08:54:58;2.20;;;1.50;;
12118;SDS011;6123;48.864;9.200;2023-11-21T08:57:27;1.80;;;1.70;;
12118;SDS011;6123;48.864;9.200;2023-11-21T08:59:53;2.28;;;1.15;;
12118;SDS011;6123;48.864;9.200;2023-11-21T09:02:23;1.25;;;1.17;;
12118;SDS011;6123;48.864;9.200;2023-11-21T09:04:51;3.13;;;1.20;;
12118;SDS011;6123;48.864;9.200;2023-11-21T09:07:17;1.30;;;1.20;;
12118;SDS011;6123;48.864;9.200;2023-11-21T09:09:45;0.98;;;0.90;;
12118;SDS011;6123;48.864;9.200;2023-11-21T09:12:12;3.35;;;1.20;;
12118;SDS011;6123;48.864;9.200;2023-11-21T09:14:38;2.58;;;1.27;;
12118;SDS011;6123;48.864;9.200;2023-11-21T09:17:04;1.35;;;1.15;;
12118;SDS011;6123;48.864;9.200;2023-11-21T09:19:35;1.58;;;1.48;;
12118;SDS011;6123;48.864;9.200;2023-11-21T09:22:01;1.20;;;1.00;;
12118;SDS011;6123;48.864;9.200;2023-11-21T09:24:27;0.80;;;0.80;;
12118;SDS011;6123;48.864;9.200;2023-11-21T09:26:52;1.33;;;1.23;;
12118;SDS011;6123;48.864;9.200;2023-11-21T09:29:18;3.20;;;1.85;;
12118;SDS011;6123;48.864;9.200;2023-11-21T09:31:43;1.88;;;1.30;;
12118;SDS011;6123;48.864;9.200;2023-11-21T09:34:10;1.73;;;1.13;;
12118;SDS011;6123;48.864;9.200;2023-11-21T09:36:36;2.08;;;1.50;;
12118;SDS011;6123;48.864;9.200;2023-11-21T09:39:04;6.25;;;1.70;;
12118;SDS011;6123;48.864;9.200;2023-11-21T09:41:34;2.13;;;1.58;;
12118;SDS011;6123;48.864;9.200;2023-11-21T09:44:12;2.05;;;1.30;;
12118;SDS011;6123;48.864;9.200;2023-11-21T09:46:42;1.55;;;1.45;;
12118;SDS011;6123;48.864;9.200;2023-11-21T09:49:11;2.28;;;1.35;;
12118;SDS011;6123;48.864;9.200;2023-11-21T09:51:42;1.23;;;1.13;;
12118;SDS011;6123;48.864;9.200;2023-11-21T09:54:08;1.30;;;1.20;;
12118;SDS011;6123;48.864;9.200;2023-11-21T09:56:37;1.60;;;1.50;;
12118;SDS011;6123;48.864;9.200;2023-11-21T09:59:03;1.55;;;1.13;;
12118;SDS011;6123;48.864;9.200;2023-11-21T10:01:32;1.13;;;1.05;;
12118;SDS011;6123;48.864;9.200;2023-11-21T10:04:00;1.75;;;1.30;;
12118;SDS011;6123;48.864;9.200;2023-11-21T10:06:26;0.95;;;0.95;;
12118;SDS011;6123;48.864;9.200;2023-11-21T10:08:53;1.38;;;1.27;;
12118;SDS011;6123;48.864;9.200;2023-11-21T10:11:22;1.90;;;1.80;;
12118;SDS011;6123;48.864;9.200;2023-11-21T10:13:52;2.35;;;2.15;;
12118;SDS011;6123;48.864;9.200;2023-11-21T10:16:19;1.95;;;1.85;;
12118;SDS011;6123;48.864;9.200;2023-11-21T10:18:46;1.92;;;1.75;;
12118;SDS011;6123;48.864;9.200;2023-11-21T10:21:14;2.97;;;1.92;;
12118;SDS011;6123;48.864;9.200;2023-11-21T10:23:40;2.70;;;1.10;;
12118;SDS011;6123;48.864;9.200;2023-11-21T10:26:06;1.80;;;1.20;;
12118;SDS011;6123;48.864;9.200;2023-11-21T10:28:35;0.90;;;0.90;;
12118;SDS011;6123;48.864;9.200;2023-11-21T10:31:02;1.25;;;1.02;;
12118;SDS011;6123;48.864;9.200;2023-11-21T10:33:32;1.20;;;0.85;;
12118;SDS011;6123;48.864;9.200;2023-11-21T10:35:58;1.63;;;1.30;;
12118;SDS011;6123;48.864;9.200;2023-11-21T10:38:24;2.00;;;1.50;;
12118;SDS011;6123;48.864;9.200;2023-11-21T10:40:52;1.45;;;1.35;;
12118;SDS011;6123;48.864;9.200;2023-11-21T10:43:19;1.55;;;1.40;;
12118;SDS011;6123;48.864;9.200;2023-11-21T10:45:49;1.35;;;1.20;;
12118;SDS011;6123;48.864;9.200;2023-11-21T10:48:15;1.58;;;1.17;;
12118;SDS011;6123;48.864;9.200;2023-11-21T10:50:40;2.28;;;1.25;;
12118;SDS011;6123;48.864;9.200;2023-11-21T10:53:07;1.58;;;1.35;;
12118;SDS011;6123;48.864;9.200;2023-11-21T10:55:33;1.38;;;1.00;;
12118;SDS011;6123;48.864;9.200;2023-11-21T10:58:00;1.90;;;1.10;;
12118;SDS011;6123;48.864;9.200;2023-11-21T11:00:27;1.08;;;0.98;;
12118;SDS011;6123;48.864;9.200;2023-11-21T11:02:54;1.17;;;1.02;;
12118;SDS011;6123;48.864;9.200;2023-11-21T11:05:21;1.50;;;1.40;;
12118;SDS011;6123;48.864;9.200;2023-11-21T11:07:50;1.27;;;1.27;;
12118;SDS011;6123;48.864;9.200;2023-11-21T11:10:20;1.35;;;1.25;;
12118;SDS011;6123;48.864;9.200;2023-11-21T11:12:48;1.50;;;1.38;;
12118;SDS011;6123;48.864;9.200;2023-11-21T11:15:15;1.40;;;1.30;;
12118;SDS011;6123;48.864;9.200;2023-11-21T11:17:41;1.58;;;1.48;;
12118;SDS011;6123;48.864;9.200;2023-11-21T11:20:09;2.25;;;1.65;;
12118;SDS011;6123;48.864;9.200;2023-11-21T11:22:41;1.40;;;1.30;;
12118;SDS011;6123;48.864;9.200;2023-11-21T11:25:30;1.73;;;1.63;;
12118;SDS011;6123;48.864;9.200;2023-11-21T11:28:27;1.52;;;1.42;;
12118;SDS011;6123;48.864;9.200;2023-11-21T11:33:53;1.60;;;1.50;;
12118;SDS011;6123;48.864;9.200;2023-11-21T11:36:34;1.80;;;1.70;;
12118;SDS011;6123;48.864;9.200;2023-11-21T11:39:30;1.83;;;1.70;;
12118;SDS011;6123;48.864;9.200;2023-11-21T11:42:01;3.63;;;2.15;;
12118;SDS011;6123;48.864;9.200;2023-11-21T11:47:19;4.50;;;2.45;;
12118;SDS011;6123;48.864;9.200;2023-11-21T11:49:56;2.40;;;2.20;;
12118;SDS011;6123;48.864;9.200;2023-11-21T11:52:32;2.47;;;1.85;;
12118;SDS011;6123;48.864;9.200;2023-11-21T11:55:02;3.00;;;1.80;;
12118;SDS011;6123;48.864;9.200;2023-11-21T11:57:31;3.92;;;1.90;;
12118;SDS011;6123;48.864;9.200;2023-11-21T12:02:40;2.22;;;1.90;;
12118;SDS011;6123;48.864;9.200;2023-11-21T12:05:13;1.73;;;1.63;;
12118;SDS011;6123;48.864;9.200;2023-11-21T12:07:43;2.55;;;1.65;;
12118;SDS011;6123;48.864;9.200;2023-11-21T12:10:23;2.47;;;1.80;;
12118;SDS011;6123;48.864;9.200;2023-11-21T12:12:54;1.50;;;1.40;;
12118;SDS011;6123;48.864;9.200;2023-11-21T12:15:20;2.15;;;2.05;;
12118;SDS011;6123;48.864;9.200;2023-11-21T12:17:46;1.80;;;1.70;;
12118;SDS011;6123;48.864;9.200;2023-11-21T12:20:14;1.75;;;1.65;;
12118;SDS011;6123;48.864;9.200;2023-11-21T12:22:43;1.75;;;1.65;;
12118;SDS011;6123;48.864;9.200;2023-11-21T12:25:19;2.30;;;1.73;;
12118;SDS011;6123;48.864;9.200;2023-11-21T12:27:46;1.77;;;1.67;;
12118;SDS011;6123;48.864;9.200;2023-11-21T12:30:17;2.25;;;2.00;;
12118;SDS011;6123;48.864;9.200;2023-11-21T12:32:44;2.10;;;2.00;;
12118;SDS011;6123;48.864;9.200;2023-11-21T12:35:10;2.10;;;2.00;;
12118;SDS011;6123;48.864;9.200;2023-11-21T12:37:40;2.88;;;1.95;;
12118;SDS011;6123;48.864;9.200;2023-11-21T12:40:08;2.10;;;2.00;;
12118;SDS011;6123;48.864;9.200;2023-11-21T12:42:36;2.20;;;1.60;;
12118;SDS011;6123;48.864;9.200;2023-11-21T12:45:07;1.70;;;1.60;;
12118;SDS011;6123;48.864;9.200;2023-11-21T12:47:49;2.60;;;1.83;;
12118;SDS011;6123;48.864;9.200;2023-11-21T12:50:15;2.00;;;1.90;;
12118;SDS011;6123;48.864;9.200;2023-11-21T12:52:47;2.03;;;1.92;;
12118;SDS011;6123;48.864;9.200;2023-11-21T12:55:20;2.38;;;2.25;;
12118;SDS011;6123;48.864;9.200;2023-11-21T12:57:49;1.23;;;1.20;;
12118;SDS011;6123;48.864;9.200;2023-11-21T13:03:11;2.00;;;1.65;;
12118;SDS011;6123;48.864;9.200;2023-11-21T13:05:41;1.83;;;1.73;;
12118;SDS011;6123;48.864;9.200;2023-11-21T13:08:09;2.30;;;2.10;;
12118;SDS011;6123;48.864;9.200;2023-11-21T13:10:41;2.45;;;2.25;;
12118;SDS011;6123;48.864;9.200;2023-11-21T13:13:10;1.80;;;1.70;;
12118;SDS011;6123;48.864;9.200;2023-11-21T13:15:52;2.20;;;2.10;;
12118;SDS011;6123;48.864;9.200;2023-11-21T13:18:23;1.98;;;1.88;;
12118;SDS011;6123;48.864;9.200;2023-11-21T13:20:49;1.70;;;1.60;;
12118;SDS011;6123;48.864;9.200;2023-11-21T13:23:15;2.28;;;1.50;;
12118;SDS011;6123;48.864;9.200;2023-11-21T13:25:41;2.22;;;1.20;;
12118;SDS011;6123;48.864;9.200;2023-11-21T13:28:08;2.13;;;1.42;;
12118;SDS011;6123;48.864;9.200;2023-11-21T13:30:37;2.70;;;1.70;;
12118;SDS011;6123;48.864;9.200;2023-11-21T13:33:05;2.22;;;1.88;;
12118;SDS011;6123;48.864;9.200;2023-11-21T13:35:36;2.83;;;2.60;;
12118;SDS011;6123;48.864;9.200;2023-11-21T13:38:10;2.80;;;1.90;;
12118;SDS011;6123;48.864;9.200;2023-11-21T13:40:37;3.08;;;2.10;;
12118;SDS011;6123;48.864;9.200;2023-11-21T13:43:14;2.45;;;2.25;;
12118;SDS011;6123;48.864;9.200;2023-11-21T13:45:46;1.70;;;1.60;;
12118;SDS011;6123;48.864;9.200;2023-11-21T13:48:16;2.30;;;2.10;;
12118;SDS011;6123;48.864;9.200;2023-11-21T13:50:50;2.17;;;1.60;;
12118;SDS011;6123;48.864;9.200;2023-11-21T13:53:33;1.80;;;1.63;;
12118;SDS011;6123;48.864;9.200;2023-11-21T13:56:01;1.45;;;1.35;;
12118;SDS011;6123;48.864;9.200;2023-11-21T13:58:27;1.65;;;1.30;;
12118;SDS011;6123;48.864;9.200;2023-11-21T14:01:11;1.48;;;1.38;;
12118;SDS011;6123;48.864;9.200;2023-11-21T14:03:55;1.00;;;1.00;;
12118;SDS011;6123;48.864;9.200;2023-11-21T14:06:37;1.60;;;1.50;;
12118;SDS011;6123;48.864;9.200;2023-11-21T14:09:12;1.10;;;0.90;;
12118;SDS011;6123;48.864;9.200;2023-11-21T14:11:51;1.17;;;1.08;;
12118;SDS011;6123;48.864;9.200;2023-11-21T14:14:22;1.45;;;0.90;;
12118;SDS011;6123;48.864;9.200;2023-11-21T14:16:51;1.35;;;1.25;;
12118;SDS011;6123;48.864;9.200;2023-11-21T14:19:17;1.27;;;1.17;;
12118;SDS011;6123;48.864;9.200;2023-11-21T14:21:44;1.50;;;1.30;;
12118;SDS011;6123;48.864;9.200;2023-11-21T14:24:13;1.90;;;1.45;;
12118;SDS011;6123;48.864;9.200;2023-11-21T14:26:42;1.98;;;1.80;;
12118;SDS011;6123;48.864;9.200;2023-11-21T14:29:10;2.00;;;1.90;;
12118;SDS011;6123;48.864;9.200;2023-11-21T14:31:39;2.08;;;1.88;;
12118;SDS011;6123;48.864;9.200;2023-11-21T14:34:05;2.20;;;1.95;;
12118;SDS011;6123;48.864;9.200;2023-11-21T14:36:32;3.83;;;1.40;;
12118;SDS011;6123;48.864;9.200;2023-11-21T14:38:58;1.58;;;1.48;;
12118;SDS011;6123;48.864;9.200;2023-11-21T14:41:24;2.95;;;1.70;;
12118;SDS011;6123;48.864;9.200;2023-11-21T14:43:50;8.48;;;2.53;;
12118;SDS011;6123;48.864;9.200;2023-11-21T14:46:16;8.48;;;2.58;;
12118;SDS011;6123;48.864;9.200;2023-11-21T14:48:44;5.10;;;1.90;;
12118;SDS011;6123;48.864;9.200;2023-11-21T14:51:24;2.05;;;1.40;;
12118;SDS011;6123;48.864;9.200;2023-11-21T14:53:56;2.28;;;1.70;;
12118;SDS011;6123;48.864;9.200;2023-11-21T14:56:31;1.48;;;1.38;;
12118;SDS011;6123;48.864;9.200;2023-11-21T14:58:59;1.65;;;1.55;;
12118;SDS011;6123;48.864;9.200;2023-11-21T15:01:30;1.35;;;1.30;;
12118;SDS011;6123;48.864;9.200;2023-11-21T15:04:11;1.92;;;1.83;;
12118;SDS011;6123;48.864;9.200;2023-11-21T15:07:00;2.80;;;2.60;;
12118;SDS011;6123;48.864;9.200;2023-11-21T15:09:28;2.20;;;1.90;;
12118;SDS011;6123;48.864;9.200;2023-11-21T15:12:03;1.70;;;1.60;;
12118;SDS011;6123;48.864;9.200;2023-11-21T15:14:39;2.20;;;2.10;;
12118;SDS011;6123;48.864;9.200;2023-11-21T15:17:06;3.10;;;2.20;;